Paddock Wood, United Kingdom
Current Conditions -  °F | °C
As of 10:20 AM on Saturday 25 Oct 2014 (Local Time) from EGKB Reporting Station
Broken Clouds Broken Clouds  
Wind Chill: 52°   Ceiling: 3700
Heat Index: 52°   Visibility: 6mi
Dew Point: 41°   Wind: 9mph
Humidity: 67%   Direction: 240°WSW
Pressure: 30.09"   Gusts: NA
Location:  51.18°N, 0.39°E
Report Text: EGKB 250920Z 24008KT 210V280 9999 BKN037 11/05 Q1019
Loading
Personal Weather Stations






























Interactive Weather Map
Tropical Storm Tracking
New forecast layout! Learn more

10-Day Weather Forecast

Advertisements
Track Severe Weather on mobile